Time;durP1;ratioP1;P1;durP2;ratioP2;P2;SDS_P1;SDS_P2;PMS_P1;PMS_P2;Temp;Humidity;BMP_temperature;BMP_pressure;BME280_temperature;BME280_humidity;BME280_pressure;Samples;Min_cycle;Max_cycle;Signal;HPM_P1;HPM_P2
2022/01/21 00:01:28;;;;;;;23.80;5.53;;;;;;;-0.54;92.44;103358.69;5048860;28;20472;-62
2022/01/21 00:03:54;;;;;;;22.53;5.67;;;;;;;-0.47;92.03;103349.88;5052794;28;20033;-62
2022/01/21 00:06:20;;;;;;;25.10;5.87;;;;;;;-0.49;92.11;103346.41;5050432;28;20040;-62
2022/01/21 00:08:47;;;;;;;25.33;5.30;;;;;;;-0.56;91.81;103334.38;5053086;28;20033;-62
2022/01/21 00:11:14;;;;;;;26.53;5.63;;;;;;;-0.64;92.43;103357.97;5052676;28;20437;-61
2022/01/21 00:13:40;;;;;;;22.93;6.00;;;;;;;-0.71;92.93;103357.22;5047901;28;20522;-62
2022/01/21 00:16:06;;;;;;;19.10;5.60;;;;;;;-0.73;93.51;103358.97;5045418;28;20024;-62
2022/01/21 00:18:34;;;;;;;23.40;5.97;;;;;;;-0.73;94.04;103355.53;5050205;28;20029;-62
2022/01/21 00:31:56;;;;;;;22.10;5.30;;;;;;;-0.62;94.05;103360.53;5046220;28;20062;-61
2022/01/21 00:34:21;;;;;;;17.90;5.20;;;;;;;-0.64;93.98;103362.34;5054200;28;20100;-62
2022/01/21 00:36:47;;;;;;;23.23;5.20;;;;;;;-0.68;93.81;103356.31;5046993;28;20025;-62
2022/01/21 00:39:13;;;;;;;21.47;5.43;;;;;;;-0.71;93.48;103345.91;5048570;28;20086;-62
2022/01/21 00:41:47;;;;;;;26.63;5.40;;;;;;;-0.66;93.05;103340.66;5052002;28;20086;-62
2022/01/21 00:44:13;;;;;;;23.80;4.93;;;;;;;-0.62;92.59;103339.69;5051591;28;20025;-62
2022/01/21 00:46:38;;;;;;;23.47;5.23;;;;;;;-0.62;92.80;103344.91;5041507;28;20072;-62
2022/01/21 00:49:03;;;;;;;20.20;5.23;;;;;;;-0.65;92.93;103344.97;5040280;28;20048;-61
2022/01/21 00:51:29;;;;;;;16.30;4.77;;;;;;;-0.71;93.71;103346.78;5044583;28;20268;-62
2022/01/21 00:53:54;;;;;;;24.67;6.00;;;;;;;-0.76;93.66;103348.63;5054691;28;20413;-61
2022/01/21 00:56:20;;;;;;;19.93;4.83;;;;;;;-0.77;94.10;103356.44;5051178;28;20094;-62
2022/01/21 00:58:46;;;;;;;23.40;4.97;;;;;;;-0.73;93.54;103355.53;5048596;28;20369;-62
2022/01/21 01:01:11;;;;;;;21.27;5.27;;;;;;;-0.75;93.46;103354.69;5047464;28;21647;-62
2022/01/21 01:03:36;;;;;;;23.57;5.10;;;;;;;-0.84;93.69;103363.53;5061369;28;20032;-62
2022/01/21 01:06:02;;;;;;;20.27;4.83;;;;;;;-0.89;94.33;103362.72;5047604;28;20053;-62
2022/01/21 01:08:27;;;;;;;21.00;4.87;;;;;;;-0.92;94.17;103367.97;5049936;28;20484;-62
2022/01/21 01:21:32;;;;;;;23.93;4.60;;;;;;;-0.95;93.64;103354.13;5044300;28;20396;-62
2022/01/21 01:29:23;;;;;;;21.43;4.70;;;;;;;-1.04;94.58;103349.03;5041292;28;20048;-62
2022/01/21 01:31:49;;;;;;;19.83;4.73;;;;;;;-1.04;95.19;103343.81;5049986;28;20024;-62
2022/01/21 01:34:15;;;;;;;23.43;5.00;;;;;;;-1.04;94.96;103343.81;5047832;28;20057;-62
2022/01/21 01:36:42;;;;;;;23.10;5.10;;;;;;;-1.02;94.67;103343.81;5045360;28;20499;-62
2022/01/21 01:39:14;;;;;;;34.23;4.73;;;;;;;-1.04;94.76;103343.81;5046198;28;20029;-62
2022/01/21 01:41:47;;;;;;;20.27;4.80;;;;;;;-1.05;94.74;103344.72;5051598;28;20791;-61
2022/01/21 01:49:41;;;;;;;18.10;4.50;;;;;;;-1.03;94.76;103350.75;5047763;28;20076;-62
2022/01/21 01:52:12;;;;;;;21.37;5.20;;;;;;;-1.05;94.44;103347.31;5049675;28;20552;-62
2022/01/21 01:54:40;;;;;;;17.43;4.50;;;;;;;-1.09;94.30;103343.03;5049508;28;20037;-62
2022/01/21 01:57:06;;;;;;;17.07;4.13;;;;;;;-1.00;93.96;103345.50;5048650;28;20041;-63
2022/01/21 01:59:32;;;;;;;23.80;5.40;;;;;;;-0.97;93.88;103337.66;5050595;28;20044;-62
2022/01/21 02:02:07;;;;;;;19.03;3.70;;;;;;;-1.01;94.00;103332.50;5047334;28;20041;-63
2022/01/21 02:04:32;;;;;;;20.03;4.40;;;;;;;-0.95;93.41;103338.50;5050929;28;20365;-62
2022/01/21 02:06:58;;;;;;;19.37;3.87;;;;;;;-0.98;94.04;103330.72;5050247;28;20371;-63
2022/01/21 02:09:24;;;;;;;17.53;3.70;;;;;;;-0.96;93.83;103331.56;5052138;28;20469;-61
2022/01/21 02:11:49;;;;;;;16.10;3.53;;;;;;;-0.93;93.95;103340.22;5047166;28;20037;-62
2022/01/21 02:14:21;;;;;;;17.73;4.13;;;;;;;-0.95;94.16;103338.50;5051300;28;20584;-62
2022/01/21 02:17:17;;;;;;;19.83;4.30;;;;;;;-0.97;95.17;103349.81;5048404;28;20040;-63
2022/01/21 02:22:28;;;;;;;16.97;3.60;;;;;;;-0.96;94.34;103344.59;5046396;28;20083;-62
2022/01/21 02:24:57;;;;;;;18.80;3.00;;;;;;;-0.97;94.69;103339.41;5053363;28;20400;-62
2022/01/21 02:27:23;;;;;;;13.67;3.17;;;;;;;-1.00;94.84;103347.25;5050995;28;20384;-62
2022/01/21 02:29:55;;;;;;;15.93;3.70;;;;;;;-0.97;95.07;103339.41;5050684;28;20036;-63
2022/01/21 02:32:21;;;;;;;18.87;3.40;;;;;;;-0.99;94.13;103331.59;5044983;28;20373;-63
2022/01/21 02:34:48;;;;;;;15.70;3.13;;;;;;;-1.04;94.88;103333.41;5043825;28;20076;-63
2022/01/21 02:37:17;;;;;;;16.40;3.63;;;;;;;-0.95;94.71;103338.50;5047688;28;20033;-63
2022/01/21 02:39:43;;;;;;;17.03;3.40;;;;;;;-0.98;95.00;103333.31;5037998;28;20025;-62
2022/01/21 02:42:09;;;;;;;20.30;3.33;;;;;;;-0.95;94.96;103335.88;5049084;28;20119;-62
2022/01/21 02:44:35;;;;;;;19.23;3.20;;;;;;;-0.96;94.63;103331.56;5045487;28;20029;-62
2022/01/21 02:47:03;;;;;;;20.37;3.23;;;;;;;-0.95;94.55;103338.50;5050544;28;20430;-63
2022/01/21 02:49:28;;;;;;;20.67;3.60;;;;;;;-0.96;94.48;103341.13;5054227;28;20453;-63
2022/01/21 02:51:57;;;;;;;16.03;3.03;;;;;;;-0.91;94.19;103343.63;5047676;28;20037;-63
2022/01/21 02:54:23;;;;;;;14.17;3.10;;;;;;;-0.89;94.30;103341.88;5055179;28;20033;-62
2022/01/21 02:56:48;;;;;;;12.90;3.17;;;;;;;-0.91;94.51;103339.28;5048078;28;20090;-62
2022/01/21 02:59:14;;;;;;;17.80;3.57;;;;;;;-0.98;94.59;103348.94;5055572;28;20516;-63
2022/01/21 03:01:42;;;;;;;14.70;3.03;;;;;;;-1.06;95.10;103356.03;5050918;28;20040;-62
2022/01/21 03:04:10;;;;;;;17.03;3.30;;;;;;;-1.09;94.85;103345.63;5053440;28;20496;-61
2022/01/21 03:06:37;;;;;;;16.03;3.60;;;;;;;-1.12;95.16;103356.13;5049835;28;20397;-62
2022/01/21 03:09:07;;;;;;;16.00;3.40;;;;;;;-1.14;95.23;103353.53;5053083;28;20029;-62
2022/01/21 03:11:33;;;;;;;12.30;3.80;;;;;;;-1.13;95.36;103354.41;5050281;28;20135;-63
2022/01/21 03:13:58;;;;;;;17.57;3.80;;;;;;;-1.15;95.07;103345.72;5055429;28;20087;-62
2022/01/21 03:16:25;;;;;;;20.80;4.33;;;;;;;-1.17;94.71;103350.09;5044053;28;20037;-63
2022/01/21 03:18:50;;;;;;;20.47;4.10;;;;;;;-1.17;95.22;103347.50;5047949;28;20039;-63
2022/01/21 03:21:16;;;;;;;17.20;3.77;;;;;;;-1.18;95.20;103353.59;5050272;28;20551;-63
2022/01/21 03:23:47;;;;;;;17.17;3.90;;;;;;;-1.24;95.13;103352.81;5052063;28;20105;-62
2022/01/21 03:26:17;;;;;;;17.60;3.70;;;;;;;-1.24;95.22;103358.00;5048688;28;20024;-61
2022/01/21 03:28:43;;;;;;;18.83;4.10;;;;;;;-1.25;95.28;103356.28;5050323;28;20029;-63
2022/01/21 03:31:09;;;;;;;22.53;4.13;;;;;;;-1.29;95.35;103367.63;5048717;28;20035;-62
2022/01/21 03:33:34;;;;;;;20.03;4.00;;;;;;;-1.30;95.34;103371.13;5047066;28;20109;-62
2022/01/21 03:36:00;;;;;;;22.33;4.03;;;;;;;-1.27;94.99;103372.81;5052317;28;20083;-63
2022/01/21 03:38:27;;;;;;;17.83;3.83;;;;;;;-1.26;95.54;103372.81;5048074;28;20036;-62
2022/01/21 03:40:53;;;;;;;18.83;3.80;;;;;;;-1.28;95.53;103377.16;5052583;28;20036;-62
2022/01/21 03:43:20;;;;;;;18.70;4.17;;;;;;;-1.28;95.11;103366.75;5052233;28;20086;-61
2022/01/21 03:45:46;;;;;;;16.50;3.73;;;;;;;-1.23;95.74;103364.09;5054540;28;20033;-63
2022/01/21 03:48:11;;;;;;;13.63;4.00;;;;;;;-1.26;96.01;103367.59;5051001;28;20045;-63
2022/01/21 03:50:36;;;;;;;17.07;3.90;;;;;;;-1.25;96.08;103366.72;5052662;28;20032;-63
2022/01/21 03:53:03;;;;;;;20.13;5.03;;;;;;;-1.27;95.70;103373.69;5050924;28;20472;-63
2022/01/21 03:55:34;;;;;;;17.20;4.90;;;;;;;-1.29;96.10;103369.38;5052420;28;20055;-63
2022/01/21 03:58:00;;;;;;;21.23;5.10;;;;;;;-1.28;96.17;103371.09;5049517;28;20029;-63
2022/01/21 04:00:34;;;;;;;16.80;4.60;;;;;;;-1.33;95.65;103363.38;5053068;28;20533;-62
2022/01/21 04:02:59;;;;;;;20.37;4.17;;;;;;;-1.33;96.01;103365.97;5051112;28;20040;-62
2022/01/21 04:05:27;;;;;;;20.23;4.27;;;;;;;-1.35;95.47;103372.91;5050519;28;20049;-63
2022/01/21 04:07:53;;;;;;;17.47;3.93;;;;;;;-1.34;95.88;103368.59;5045022;28;20039;-63
2022/01/21 04:10:19;;;;;;;20.07;5.23;;;;;;;-1.31;95.86;103369.41;5054474;28;20412;-64
2022/01/21 04:12:44;;;;;;;19.93;4.50;;;;;;;-1.33;95.90;103368.56;5049081;28;20040;-63
2022/01/21 04:15:10;;;;;;;16.30;3.60;;;;;;;-1.32;95.50;103366.81;5049751;28;20041;-64
2022/01/21 04:17:36;;;;;;;18.63;4.10;;;;;;;-1.33;96.00;103363.38;5046030;28;20026;-63
2022/01/21 04:20:02;;;;;;;17.70;3.67;;;;;;;-1.35;95.90;103362.50;5051900;28;20450;-63
2022/01/21 04:22:27;;;;;;;16.53;4.10;;;;;;;-1.35;96.08;103359.91;5052900;28;20048;-63
2022/01/21 04:24:54;;;;;;;20.77;3.73;;;;;;;-1.38;95.81;103359.97;5051790;28;20646;-64
2022/01/21 04:27:19;;;;;;;15.90;3.43;;;;;;;-1.37;95.64;103356.47;5050312;28;20074;-63
2022/01/21 04:29:45;;;;;;;19.27;3.80;;;;;;;-1.36;96.19;103368.59;5064406;28;20033;-63
2022/01/21 04:32:10;;;;;;;13.03;3.53;;;;;;;-1.39;95.92;103364.28;5045307;28;20037;-63
2022/01/21 04:34:36;;;;;;;12.87;3.17;;;;;;;-1.40;95.69;103365.19;5054647;28;20037;-63
2022/01/21 04:37:05;;;;;;;17.93;3.43;;;;;;;-1.36;95.46;103355.56;5049933;28;20033;-63
2022/01/21 04:39:36;;;;;;;15.07;3.40;;;;;;;-1.34;96.23;103356.41;5048174;28;20025;-64
2022/01/21 04:47:34;;;;;;;18.27;3.80;;;;;;;-1.31;96.48;103366.78;5052228;28;20075;-63
2022/01/21 04:49:59;;;;;;;17.83;3.33;;;;;;;-1.28;96.66;103366.75;5048145;28;20033;-63
2022/01/21 04:52:25;;;;;;;12.23;2.83;;;;;;;-1.27;96.54;103358.06;5052394;28;20029;-63
2022/01/21 04:54:52;;;;;;;17.70;3.27;;;;;;;-1.25;97.02;103361.50;5045026;28;20530;-63
2022/01/21 04:57:18;;;;;;;16.93;3.43;;;;;;;-1.24;96.83;103357.13;5049843;28;20110;-62
2022/01/21 04:59:43;;;;;;;13.57;2.93;;;;;;;-1.24;96.11;103352.81;5051141;28;20033;-62
2022/01/21 05:02:09;;;;;;;16.23;3.60;;;;;;;-1.21;96.17;103357.09;5048390;28;20114;-63
2022/01/21 05:04:36;;;;;;;16.97;3.10;;;;;;;-1.24;96.35;103358.00;5041083;28;20049;-63
2022/01/21 05:07:04;;;;;;;15.57;3.27;;;;;;;-1.27;96.70;103352.88;5045838;28;20507;-63
2022/01/21 05:09:31;;;;;;;17.30;3.40;;;;;;;-1.29;96.71;103333.78;5043738;28;20044;-63
2022/01/21 05:11:58;;;;;;;14.17;3.33;;;;;;;-1.20;96.81;103331.94;5049204;28;20367;-64
2022/01/21 05:14:41;;;;;;;16.80;3.00;;;;;;;-1.20;96.94;103342.34;5049041;28;20025;-63
2022/01/21 05:17:07;;;;;;;13.88;3.30;;;;;;;-1.27;97.11;103350.25;5045502;28;20072;-63
2022/01/21 05:19:33;;;;;;;16.77;3.43;;;;;;;-1.31;96.95;103345.97;5040167;28;20033;-63
2022/01/21 05:21:58;;;;;;;16.43;3.30;;;;;;;-1.32;97.14;103349.47;5042697;28;20488;-64
2022/01/21 05:24:23;;;;;;;19.73;3.40;;;;;;;-1.33;97.46;103352.94;5044500;28;20029;-63
2022/01/21 05:26:54;;;;;;;14.73;3.17;;;;;;;-1.33;97.14;103352.94;5050034;28;20104;-63
2022/01/21 05:29:21;;;;;;;18.60;3.77;;;;;;;-1.38;97.46;103354.75;5049147;28;20033;-64
2022/01/21 05:31:47;;;;;;;12.83;3.10;;;;;;;-1.31;97.61;103350.31;5046068;28;20025;-63
2022/01/21 05:34:12;;;;;;;18.77;3.53;;;;;;;-1.29;97.72;103358.97;5048890;28;20536;-63
2022/01/21 05:36:40;;;;;;;18.57;3.67;;;;;;;-1.29;97.43;103358.97;5041827;28;20026;-63
2022/01/21 05:39:06;;;;;;;17.37;3.50;;;;;;;-1.32;97.87;103364.22;5049059;28;20052;-63
2022/01/21 05:41:32;;;;;;;14.97;3.27;;;;;;;-1.34;97.62;103366.81;5043833;28;20025;-63
2022/01/21 05:44:09;;;;;;;20.40;3.50;;;;;;;-1.34;98.16;103355.56;5052486;28;20028;-62
2022/01/21 05:49:18;;;;;;;16.90;4.00;;;;;;;-1.34;97.83;103359.00;5049761;28;20083;-63
2022/01/21 05:51:44;;;;;;;13.30;3.90;;;;;;;-1.34;97.51;103350.34;5046047;28;20029;-62
2022/01/21 05:54:09;;;;;;;19.77;4.40;;;;;;;-1.35;97.85;103354.69;5051462;28;20085;-63
2022/01/21 05:56:37;;;;;;;22.60;4.97;;;;;;;-1.34;97.99;103361.63;5046982;28;20091;-63
2022/01/21 05:59:04;;;;;;;16.83;5.30;;;;;;;-1.35;98.07;103367.72;5042517;28;20068;-62
2022/01/21 06:01:29;;;;;;;17.30;5.20;;;;;;;-1.39;98.10;103363.41;5040198;28;20028;-62
2022/01/21 06:03:54;;;;;;;22.40;6.13;;;;;;;-1.40;98.14;103370.38;5037974;28;20029;-61
2022/01/21 06:06:20;;;;;;;24.57;7.40;;;;;;;-1.38;98.07;103370.38;5038028;28;20025;-62
2022/01/21 06:08:45;;;;;;;21.43;6.70;;;;;;;-1.40;98.46;103372.97;5038719;28;20064;-63
2022/01/21 06:11:11;;;;;;;19.17;7.10;;;;;;;-1.37;98.31;103366.88;5039355;28;20029;-62
2022/01/21 06:13:37;;;;;;;22.37;6.80;;;;;;;-1.39;98.33;103363.41;5037459;28;20060;-63
2022/01/21 06:16:02;;;;;;;19.30;6.67;;;;;;;-1.41;98.44;103378.19;5041367;28;20037;-62
2022/01/21 06:18:28;;;;;;;18.60;7.13;;;;;;;-1.39;98.77;103384.25;5042124;28;20441;-62
2022/01/21 06:20:53;;;;;;;21.50;7.40;;;;;;;-1.39;98.04;103381.63;5050601;28;20040;-63
2022/01/21 06:23:19;;;;;;;18.87;6.97;;;;;;;-1.38;98.24;103386.00;5045798;28;20035;-63
2022/01/21 06:25:44;;;;;;;19.70;7.20;;;;;;;-1.36;98.71;103385.09;5051147;28;20539;-62
2022/01/21 06:28:10;;;;;;;20.93;7.43;;;;;;;-1.38;99.08;103378.19;5050107;28;20159;-63
2022/01/21 06:30:36;;;;;;;21.70;8.00;;;;;;;-1.36;98.79;103389.41;5050212;28;20049;-63
2022/01/21 06:33:01;;;;;;;23.63;7.63;;;;;;;-1.34;98.92;103387.66;5047817;28;20106;-63
2022/01/21 06:35:27;;;;;;;21.63;7.80;;;;;;;-1.35;98.79;103398.94;5049582;28;20393;-63
2022/01/21 06:37:52;;;;;;;19.83;8.03;;;;;;;-1.33;98.68;103405.00;5048634;28;20059;-62
2022/01/21 06:40:20;;;;;;;21.70;7.80;;;;;;;-1.30;99.36;103410.16;5046385;28;20662;-63
2022/01/21 06:42:48;;;;;;;17.27;7.80;;;;;;;-1.28;99.09;103413.59;5044628;28;20032;-63
2022/01/21 06:45:15;;;;;;;24.57;8.17;;;;;;;-1.25;99.15;103424.00;5033737;28;20364;-63
2022/01/21 06:47:41;;;;;;;21.50;7.90;;;;;;;-1.25;99.23;103424.00;5036198;28;20037;-63
2022/01/21 06:50:07;;;;;;;25.63;8.63;;;;;;;-1.22;99.59;103421.34;5044621;28;20040;-63
2022/01/21 06:52:33;;;;;;;17.27;8.33;;;;;;;-1.19;99.63;103419.59;5041329;28;20040;-63
2022/01/21 06:54:59;;;;;;;25.07;9.50;;;;;;;-1.08;99.62;103422.91;5040780;28;20038;-63
2022/01/21 06:57:25;;;;;;;22.47;9.10;;;;;;;-1.10;99.56;103416.84;5039763;28;20068;-63
2022/01/21 06:59:50;;;;;;;20.37;9.13;;;;;;;-1.05;99.64;103429.81;5047490;28;20040;-63
2022/01/21 07:02:18;;;;;;;24.00;9.80;;;;;;;-1.02;99.29;103425.44;5045605;28;20033;-63
2022/01/21 07:04:45;;;;;;;27.83;9.47;;;;;;;-1.01;99.44;103427.16;5042340;28;20060;-63
2022/01/21 07:07:10;;;;;;;23.87;9.00;;;;;;;-0.99;99.79;103430.59;5044414;28;20037;-63
2022/01/21 07:09:36;;;;;;;24.17;9.67;;;;;;;-0.92;99.74;103440.91;5038002;28;20025;-63
2022/01/21 07:12:01;;;;;;;25.70;10.10;;;;;;;-0.84;98.76;103444.28;5045543;28;20078;-63
2022/01/21 07:14:28;;;;;;;25.53;10.10;;;;;;;-0.87;99.76;103452.13;5044917;28;20542;-62
2022/01/21 07:16:53;;;;;;;21.43;10.40;;;;;;;-0.88;99.63;103455.63;5041442;28;20061;-63
2022/01/21 07:19:19;;;;;;;20.63;10.40;;;;;;;-0.89;100.00;103440.88;5042681;28;20057;-64
2022/01/21 07:21:44;;;;;;;28.27;10.90;;;;;;;-0.87;100.00;103445.19;5041635;28;20033;-61
2022/01/21 07:24:09;;;;;;;27.97;10.90;;;;;;;-0.85;100.00;103442.53;5038109;28;20032;-61
2022/01/21 07:26:34;;;;;;;28.33;11.80;;;;;;;-0.76;99.88;103446.75;5042725;28;20130;-63
2022/01/21 07:29:01;;;;;;;24.87;11.47;;;;;;;-0.74;99.82;103440.66;5037902;28;20403;-62
2022/01/21 07:31:26;;;;;;;24.37;11.87;;;;;;;-0.73;100.00;103446.72;5045490;28;20087;-63
2022/01/21 07:33:52;;;;;;;25.13;11.57;;;;;;;-0.64;99.87;103456.16;5036294;28;20432;-64
2022/01/21 07:36:17;;;;;;;24.43;11.50;;;;;;;-0.63;99.78;103452.66;5046316;28;20021;-63
2022/01/21 07:38:42;;;;;;;25.57;11.57;;;;;;;-0.61;99.97;103469.13;5038789;28;20025;-63
2022/01/21 07:41:07;;;;;;;23.83;11.53;;;;;;;-0.59;99.89;103462.16;5036698;28;20079;-62
2022/01/21 07:43:33;;;;;;;23.33;11.03;;;;;;;-0.56;99.74;103464.72;5043851;28;20264;-62
2022/01/21 07:45:58;;;;;;;24.57;11.57;;;;;;;-0.56;100.00;103469.91;5036450;28;20119;-63
2022/01/21 07:48:24;;;;;;;23.50;11.73;;;;;;;-0.56;100.00;103454.28;5039377;28;20491;-62
2022/01/21 07:50:49;;;;;;;24.13;11.13;;;;;;;-0.53;100.00;103443.81;5039646;28;20035;-62
2022/01/21 07:53:14;;;;;;;23.77;10.80;;;;;;;-0.47;100.00;103458.50;5038519;28;20051;-63
2022/01/21 07:55:39;;;;;;;26.17;11.23;;;;;;;-0.43;99.64;103463.63;5041455;28;20031;-63
2022/01/21 07:58:05;;;;;;;24.90;10.70;;;;;;;-0.42;100.00;103454.94;5038846;28;20031;-63
2022/01/21 08:00:31;;;;;;;20.97;10.97;;;;;;;-0.45;100.00;103464.56;5042245;28;20029;-63
2022/01/21 08:02:57;;;;;;;17.53;10.30;;;;;;;-0.45;100.00;103441.94;5035819;28;20120;-63
2022/01/21 08:05:22;;;;;;;23.77;11.70;;;;;;;-0.47;100.00;103435.91;5039011;28;20116;-62
2022/01/21 08:07:47;;;;;;;24.33;11.63;;;;;;;-0.49;100.00;103440.25;5044779;28;20051;-63
2022/01/21 08:10:13;;;;;;;21.97;11.60;;;;;;;-0.49;100.00;103442.88;5041087;28;20072;-63
2022/01/21 08:12:38;;;;;;;23.63;11.60;;;;;;;-0.49;100.00;103437.66;5045080;28;20466;-63
2022/01/21 08:15:04;;;;;;;25.93;11.60;;;;;;;-0.52;100.00;103435.13;5035818;28;20052;-63
2022/01/21 08:17:29;;;;;;;24.87;11.50;;;;;;;-0.52;100.00;103435.13;5041926;28;20033;-63
2022/01/21 08:19:56;;;;;;;23.13;11.30;;;;;;;-0.52;100.00;103437.72;5038535;28;20028;-62
2022/01/21 08:22:22;;;;;;;23.83;11.77;;;;;;;-0.52;100.00;103429.91;5040514;28;20033;-63
2022/01/21 08:24:48;;;;;;;23.23;11.03;;;;;;;-0.50;100.00;103429.88;5038357;28;20040;-62
2022/01/21 08:27:14;;;;;;;20.73;11.03;;;;;;;-0.47;100.00;103424.59;5036119;28;20396;-60
2022/01/21 08:29:40;;;;;;;21.17;11.00;;;;;;;-0.47;100.00;103422.88;5038668;28;20226;-62
2022/01/21 08:32:07;;;;;;;23.20;11.33;;;;;;;-0.47;100.00;103416.78;5033320;28;20116;-62
2022/01/21 08:34:34;;;;;;;20.50;10.67;;;;;;;-0.48;100.00;103415.94;5036127;28;20021;-61
2022/01/21 08:37:02;;;;;;;19.93;11.23;;;;;;;-0.46;100.00;103423.72;5038401;28;20044;-59
2022/01/21 08:39:28;;;;;;;20.67;11.13;;;;;;;-0.35;100.00;103441.81;5035447;28;20304;-60
2022/01/21 08:41:53;;;;;;;20.60;10.80;;;;;;;-0.28;100.00;103443.41;5034907;28;20499;-63
2022/01/21 08:44:19;;;;;;;21.53;12.23;;;;;;;-0.28;100.00;103446.03;5037267;28;20597;-64
2022/01/21 08:46:44;;;;;;;28.63;11.73;;;;;;;-0.31;100.00;103443.47;5041284;28;20036;-64
2022/01/21 08:49:10;;;;;;;24.87;12.53;;;;;;;-0.32;100.00;103441.75;5037337;28;20025;-63
2022/01/21 08:51:56;;;;;;;24.83;13.70;;;;;;;-0.32;100.00;103432.19;5041020;28;20087;-64
2022/01/21 08:54:22;;;;;;;24.77;13.87;;;;;;;-0.25;100.00;103443.34;5042837;28;20128;-64
2022/01/21 08:56:49;;;;;;;23.67;13.73;;;;;;;-0.19;100.00;103452.84;5037860;28;20037;-66
2022/01/21 08:59:16;;;;;;;27.33;12.63;;;;;;;-0.15;100.00;103455.34;5038078;28;20026;-64
2022/01/21 09:01:43;;;;;;;22.37;12.60;;;;;;;-0.10;100.00;103457.88;5041001;28;20030;-63
2022/01/21 09:04:08;;;;;;;23.00;11.87;;;;;;;-0.04;100.00;103451.72;5033680;28;20488;-64
2022/01/21 09:06:34;;;;;;;25.10;11.53;;;;;;;0.06;100.00;103442.84;5040638;28;20035;-64
2022/01/21 09:08:59;;;;;;;24.07;11.60;;;;;;;0.08;100.00;103441.06;5039416;28;20029;-64
2022/01/21 09:11:25;;;;;;;18.07;10.17;;;;;;;0.14;100.00;103429.63;5042457;28;20037;-64
2022/01/21 09:13:51;;;;;;;21.23;11.50;;;;;;;0.19;100.00;103421.72;5039565;28;20029;-63
2022/01/21 09:16:18;;;;;;;24.13;10.63;;;;;;;0.23;100.00;103412.94;5039267;28;20032;-64
2022/01/21 09:21:18;;;;;;;22.13;9.70;;;;;;;0.27;100.00;103398.94;5041604;28;20041;-64
2022/01/21 09:23:47;;;;;;;20.40;10.00;;;;;;;0.39;100.00;103398.69;5040990;28;20049;-63
2022/01/21 09:26:13;;;;;;;22.93;9.33;;;;;;;0.47;100.00;103410.72;5036851;28;20045;-64
2022/01/21 09:28:39;;;;;;;24.53;8.80;;;;;;;0.55;100.00;103414.06;5038699;28;20037;-64
2022/01/21 09:31:04;;;;;;;22.67;9.50;;;;;;;0.63;100.00;103412.13;5038591;28;20044;-63
2022/01/21 09:33:29;;;;;;;25.03;9.50;;;;;;;0.71;100.00;103418.94;5043354;28;20029;-64
2022/01/21 09:35:54;;;;;;;19.13;8.60;;;;;;;0.79;100.00;103427.50;5038301;28;20072;-63
2022/01/21 09:38:20;;;;;;;20.33;8.87;;;;;;;0.87;100.00;103420.34;5038254;28;20548;-64
2022/01/21 09:40:49;;;;;;;19.37;8.67;;;;;;;0.99;100.00;103428.78;5035566;28;20422;-64
2022/01/21 09:43:16;;;;;;;15.03;8.10;;;;;;;1.04;99.61;103426.94;5039759;28;20029;-65
2022/01/21 09:45:45;;;;;;;21.43;8.87;;;;;;;1.13;99.46;103442.41;5042157;28;20043;-64
2022/01/21 09:48:12;;;;;;;17.80;8.37;;;;;;;1.17;99.90;103443.19;5032661;28;20028;-65
2022/01/21 09:50:38;;;;;;;16.67;8.00;;;;;;;1.23;99.30;103439.59;5041976;28;20055;-65
2022/01/21 09:53:05;;;;;;;22.67;8.07;;;;;;;1.28;99.31;103453.41;5033592;28;20029;-65
2022/01/21 09:55:31;;;;;;;18.33;7.60;;;;;;;1.35;99.63;103449.75;5041553;28;20112;-65
2022/01/21 09:57:57;;;;;;;14.07;7.37;;;;;;;1.43;99.51;103447.81;5035435;28;20432;-65
2022/01/21 10:00:26;;;;;;;21.43;7.73;;;;;;;1.48;99.42;103448.56;5033860;28;20042;-65
2022/01/21 10:02:53;;;;;;;22.10;7.70;;;;;;;1.60;98.96;103457.00;5034190;28;20044;-62
2022/01/21 10:05:19;;;;;;;16.20;7.13;;;;;;;1.69;98.84;103456.78;5036354;28;20474;-65
2022/01/21 10:07:47;;;;;;;19.27;7.33;;;;;;;1.80;98.41;103453.03;5037247;28;20032;-65
2022/01/21 10:10:14;;;;;;;19.90;7.40;;;;;;;1.92;97.32;103457.94;5042846;28;20041;-66
2022/01/21 10:12:44;;;;;;;16.90;6.97;;;;;;;1.99;97.30;103464.75;5040694;28;20088;-64
2022/01/21 10:15:10;;;;;;;17.80;6.80;;;;;;;2.03;97.66;103475.13;5042251;28;20500;-65
2022/01/21 10:17:36;;;;;;;18.33;6.77;;;;;;;2.13;97.19;103477.47;5038489;28;20508;-60
2022/01/21 10:20:17;;;;;;;22.47;7.00;;;;;;;2.20;97.47;103478.16;5042877;28;20051;-60
2022/01/21 10:23:05;;;;;;;21.90;7.00;;;;;;;2.29;97.69;103487.53;5039478;28;20040;-61
2022/01/21 10:25:32;;;;;;;17.37;6.43;;;;;;;2.26;97.21;103488.47;5048641;28;20033;-60
2022/01/21 10:28:17;;;;;;;20.30;6.40;;;;;;;2.23;96.58;103478.06;5040722;28;20044;-60
2022/01/21 10:30:43;;;;;;;15.83;6.53;;;;;;;2.18;96.90;103482.59;5040101;28;20365;-60
2022/01/21 10:33:22;;;;;;;24.70;6.77;;;;;;;2.15;97.39;103490.53;5042496;28;20035;-60
2022/01/21 10:35:49;;;;;;;19.57;6.63;;;;;;;2.23;97.98;103483.31;5041912;28;20033;-61
2022/01/21 10:38:23;;;;;;;19.70;6.33;;;;;;;2.38;97.43;103487.28;5044632;28;20359;-61
2022/01/21 10:40:49;;;;;;;24.70;6.97;;;;;;;2.55;97.46;103478.97;5040421;28;20378;-59
2022/01/21 10:43:17;;;;;;;24.83;7.20;;;;;;;2.63;97.18;103485.75;5047776;28;20036;-60
2022/01/21 10:45:57;;;;;;;20.97;7.17;;;;;;;2.75;96.49;103488.00;5029954;28;20037;-61
2022/01/21 10:48:24;;;;;;;20.97;8.60;;;;;;;2.94;97.29;103490.09;5042388;28;20045;-60
2022/01/21 10:51:20;;;;;;;23.93;8.80;;;;;;;3.04;96.60;103491.53;5039597;28;20124;-60
2022/01/21 10:53:46;;;;;;;28.13;7.67;;;;;;;3.07;96.62;103491.44;5041758;28;20068;-59
2022/01/21 10:56:16;;;;;;;21.73;7.37;;;;;;;3.08;97.07;103485.31;5042131;28;20213;-60
2022/01/21 10:58:44;;;;;;;26.27;7.40;;;;;;;3.19;96.17;103484.97;5042900;28;20057;-60
2022/01/21 11:01:16;;;;;;;17.53;7.03;;;;;;;3.27;95.27;103478.63;5039843;28;20094;-60
2022/01/21 11:03:56;;;;;;;22.50;6.90;;;;;;;3.37;96.35;103482.69;5041679;28;20041;-62
2022/01/21 11:06:24;;;;;;;22.85;7.40;;;;;;;3.36;95.21;103476.56;5043325;28;20033;-60
2022/01/21 11:08:50;;;;;;;17.80;6.70;;;;;;;3.28;95.75;103468.09;5038615;28;20088;-60
2022/01/21 11:11:22;;;;;;;17.35;6.15;;;;;;;3.29;96.26;103461.94;5047087;28;20587;-60
2022/01/21 11:13:47;;;;;;;20.75;6.07;;;;;;;3.25;96.65;103459.47;5046170;28;21010;-61
2022/01/21 11:16:24;;;;;;;22.65;6.75;;;;;;;3.19;97.59;103455.25;5040956;28;20181;-60
2022/01/21 11:18:59;;;;;;;24.30;6.80;;;;;;;3.23;98.46;103444.63;5044045;28;20032;-59
2022/01/21 11:21:38;;;;;;;21.23;6.23;;;;;;;3.27;98.62;103437.53;5046505;28;20025;-59
2022/01/21 11:24:06;;;;;;;19.73;5.73;;;;;;;3.31;97.94;103430.41;5043577;28;20036;-60
2022/01/21 11:26:31;;;;;;;20.90;6.40;;;;;;;3.41;98.92;103425.72;5039109;28;20055;-60
2022/01/21 11:28:56;;;;;;;23.58;6.25;;;;;;;3.44;98.79;103420.38;5039011;28;20028;-60
2022/01/21 11:31:28;;;;;;;20.83;6.80;;;;;;;3.48;98.78;103422.00;5040544;28;20035;-60
2022/01/21 11:33:53;;;;;;;19.15;5.95;;;;;;;3.52;97.55;103413.13;5041796;28;20476;-58
2022/01/21 11:36:18;;;;;;;17.92;6.55;;;;;;;3.65;97.81;103410.06;5047171;28;20029;-60
2022/01/21 11:38:45;;;;;;;23.60;6.18;;;;;;;3.71;96.60;103412.50;5040429;28;20688;-60
2022/01/21 11:41:13;;;;;;;20.10;5.97;;;;;;;3.72;96.59;103419.44;5044317;28;20112;-59
2022/01/21 11:43:45;;;;;;;17.95;5.70;;;;;;;3.72;96.11;103419.44;5047567;28;20026;-59
2022/01/21 11:48:57;;;;;;;25.33;5.47;;;;;;;3.78;95.14;103421.88;5048239;28;20048;-60
2022/01/21 11:51:32;;;;;;;17.80;4.88;;;;;;;3.85;94.58;103419.91;5048719;28;20056;-60
2022/01/21 11:54:00;;;;;;;22.52;5.40;;;;;;;3.79;94.98;103418.31;5047411;28;20115;-60
2022/01/21 11:56:35;;;;;;;23.77;5.40;;;;;;;3.87;95.33;103416.31;5043546;28;20033;-60
2022/01/21 11:59:32;;;;;;;19.70;5.15;;;;;;;3.80;95.23;103412.16;5039556;28;20473;-60
2022/01/21 12:01:59;;;;;;;19.45;5.00;;;;;;;3.78;94.16;103414.00;5040988;28;20031;-60
2022/01/21 12:04:30;;;;;;;17.98;5.00;;;;;;;3.89;95.15;103417.09;5043861;28;20045;-60
2022/01/21 12:07:00;;;;;;;23.20;4.85;;;;;;;3.88;94.77;103412.78;5048408;28;20032;-60